Airfield :
LOGIN :

Register | Disclaimer

   EN    FR    IT 

 










Legend :    VFR   Marginal VFR   IFR   Intensive IFR   Very Intensive IFR
Visi :
Ceiling :
>= 8 km
>= 3000ft
5 to 8 km
1000 to 3000 ft
1500m to 5 km
500 to 1000 ft
800 to 1500m
200 to 500 ft
< 800m
< 200 ft
Symbols :   Thunderstorms  Fog  Heavy snow  Heavy precipitations  Wind > 20 kt
SIGMETs :     Misc.  Thunderstorms  Icing  Turbulence  Mountain Waves  Volcanic Ashes







- Airport Elevation : 1339 ft


ETHN - Niederstetten

CURRENT METAR :
  • 230620Z 25006KT 9999 BKN180 05/04 Q1027 BLU BLU+

EXPIRED METARs :
  • 230520Z 24005KT 9999 BKN270 05/04 Q1027 BLU+BLU+
  • 230420Z 22004KT 9999 VCFG BKN280 04/03 Q1028 BLU+BLU+

TAF TAF ETHN
Valid from the 23 at 05:00 until the 23 at 14:00 UTC


230400Z 2305/2314 24008G18KT 9999 NSW FEW030 BKN250
PROB30 2305/2308 26005KT 0800 FG VV001
BECMG 2310/2312 25018G30KT 9999 NSW SCT030 BKN110
No reported NOTAMs for that airfield.



MET'MAP, your aeronautical weather chart ! - Copyright ORBIFLY December 2007 - Disclaimer

ORBIFLY MET'MAP TEAM :

Programming & Development : Alexandra Zaïnal
Concept & Development : Baudouin d'Aumeries
Co-Development & Prog : Marc-Olivier Méhu
Technical & hardware support : Manuel Goepfert

Contact : metmap@orbifly.com




SOURCES & CREDITS :

   NOAA